NCAR-RAP Real-Time Weather Data

Output produced by METARs form (08 May 2021  15:47 UTC)
found at http://weather.rap.ucar.edu/surface/
 
KLIT 081453Z 14006KT 10SM SCT130 BKN250 19/12 A3004 RMK AO2 SLP174 T01940117 50001
KLIT 081353Z 16005KT 10SM FEW100 SCT150 BKN250 17/12 A3005 RMK AO2 SLP176 T01670117
KLIT 081253Z 00000KT 10SM SCT100 BKN180 BKN250 14/12 A3004 RMK AO2 SLP175 T01440122
KLIT 081153Z 05003KT 10SM FEW110 SCT180 BKN250 13/11 A3004 RMK AO2 SLP173 70017 T01330111 10139 20122 53002
KLIT 081053Z COR 10003KT 10SM BKN110 13/11 A3002 RMK AO2 SLP167 T01280111
KLIT 080953Z 00000KT 10SM SCT070 13/12 A3002 RMK AO2 SLP167 T01330117
KLIT 080853Z 00000KT 10SM SCT070 13/12 A3003 RMK AO2 SLP170 T01280122 56018
KLIT 080753Z 00000KT 10SM BKN100 13/12 A3005 RMK AO2 SLP177 T01330122
KLIT 080653Z 00000KT 10SM BKN110 13/12 A3006 RMK AO2 SLP182 T01330122
KLIT 080553Z 00000KT 10SM BKN160 14/12 A3008 RMK AO2 SLP188 60017 T01390122 10200 20139 402220094 53008
KLIT 080453Z 00000KT 10SM BKN130 15/11 A3007 RMK AO2 SLP185 T01500111
KLIT 080353Z 14006KT 10SM FEW055 BKN080 OVC110 14/12 A3006 RMK AO2 SLP181 OCNL LTG DSNT NW P0000 T01440117
KLIT 080253Z 08009KT 10SM -RA FEW070 BKN090 OVC110 14/11 A3006 RMK AO2 SLP180 P0008 60017 T01390111 58002
KLIT 080153Z 02009KT 10SM -RA FEW055 SCT090 OVC110 15/11 A3013 RMK AO2 TSE19 SLP202 TS DSIPTD P0005 T01500111
KLIT 080119Z 16008KT 7SM -RA FEW055 SCT070 OVC100 16/12 A3004 RMK AO2 TSE19 PRESFR TS DSIPTD P0003 T01560122
KLIT 080053Z 14005KT 6SM -TSRA BR SCT050CB BKN080 OVC110 17/11 A3008 RMK AO2 RAB26 TSB17 SLP187 OCNL LTGICCCCG ALQDS TS ALQDS MOV SE P0004 T01670111
KLIT 080017Z 23003KT 10SM TS SCT050CB BKN100 BKN200 20/07 A3009 RMK AO2 PRESRR OCNL LTGIC W-NW TS W-NW MOV SE T02000067
KLIT 072353Z 17004KT 10SM BKN095 BKN200 20/07 A3007 RMK AO2 LTG DSNT NW SLP182 VCSH W-NW T02000067 10222 20200 58024
KLIT 072253Z 17006KT 10SM BKN110 BKN200 22/06 A3009 RMK AO2 SLP190 T02220056
KLIT 072153Z 16004KT 10SM OVC110 21/05 A3012 RMK AO2 SLP201 BINOVC T02110050
KLIT 072053Z 21003KT 10SM BKN110 22/04 A3014 RMK AO2 SLP206 T02170044 58025
KLIT 071953Z 20005KT 10SM BKN110 22/05 A3017 RMK AO2 SLP218 T02170050
KLIT 071853Z VRB05KT 10SM BKN110 21/04 A3019 RMK AO2 SLP226 T02110044
KLIT 071753Z 13006KT 10SM SCT100 22/04 A3021 RMK AO2 SLP232 T02170044 10217 20106 58017
KLIT 071653Z 09006KT 10SM FEW100 21/03 A3025 RMK AO2 SLP244 T02060033
KLIT 071553Z 03003KT 10SM FEW100 19/03 A3026 RMK AO2 SLP248 T01940033
KLIT 071453Z 03004KT 10SM CLR 18/04 A3026 RMK AO2 SLP248 T01830044 50010
KLIT 071353Z 22003KT 10SM CLR 16/06 A3026 RMK AO2 SLP249 T01560061
KLIT 071253Z 00000KT 10SM CLR 14/06 A3025 RMK AO2 SLP245 T01440056
KLIT 071153Z 00000KT 10SM CLR 11/06 A3023 RMK AO2 SLP238 T01060061 10156 20094 53010
KLIT 071053Z 00000KT 10SM FEW250 11/06 A3021 RMK AO2 SLP232 T01060056
KLIT 070953Z 00000KT 10SM CLR 12/04 A3021 RMK AO2 SLP230 T01170039
KLIT 070853Z 35005KT 10SM CLR 12/04 A3020 RMK AO2 SLP227 T01170044 51008
KLIT 070753Z 35008KT 10SM CLR 12/04 A3019 RMK AO2 SLP225 T01170044
KLIT 070653Z 34005KT 10SM CLR 14/04 A3019 RMK AO2 SLP223 T01390039
KLIT 070553Z 36009KT 10SM CLR 16/04 A3018 RMK AO2 SLP219 T01560039 10250 20139 402780106 51007
KLIT 070453Z 35005KT 10SM CLR 16/04 A3017 RMK AO2 SLP216 T01610044
KLIT 070353Z 34008KT 10SM CLR 17/05 A3017 RMK AO2 SLP218 T01720050
KLIT 070253Z 33007KT 10SM CLR 18/05 A3015 RMK AO2 SLP211 T01830050 53027
KLIT 070153Z 34011KT 10SM CLR 21/04 A3012 RMK AO2 SLP200 T02060039
KLIT 070053Z 30013G18KT 10SM CLR 23/05 A3009 RMK AO2 SLP189 T02280050
KLIT 062353Z 31016KT 10SM FEW080 25/06 A3007 RMK AO2 SLP184 T02500056 10278 20250 55002
KLIT 062253Z 30017G26KT 10SM SCT070 26/07 A3007 RMK AO2 PK WND 30028/2227 SLP184 T02610067
KLIT 062153Z 31021G25KT 10SM SCT055 SCT250 27/07 A3007 RMK AO2 PK WND 31030/2118 SLP182 TCU DSNT N T02720072
KLIT 062053Z 30018G25KT 10SM FEW055 SCT250 27/07 A3008 RMK AO2 SLP185 TCU DSNT NW-NE T02720072 56026
KLIT 061953Z 31012G21KT 10SM FEW055 SCT250 27/08 A3009 RMK AO2 SLP191 TCU DSNT N-NE T02670083
KLIT 061853Z 32011G17KT 10SM FEW050 26/09 A3013 RMK AO2 SLP202 TCU DSNT NW-N T02610094
KLIT 061753Z 31011KT 10SM FEW045 25/08 A3016 RMK AO2 SLP213 T02500083 10256 20117 58016
KLIT 061653Z 32011G16KT 10SM FEW040 24/07 A3018 RMK AO2 SLP222 WSHFT 51 FROPA T02440067
KLIT 061553Z 24008KT 10SM CLR 23/09 A3020 RMK AO2 SLP227 T02280089